sensor_id;sensor_type;location;lat;lon;timestamp;P1;durP1;ratioP1;P2;durP2;ratioP2
3085;SDS011;52812;48.960;9.108;2022-08-05T00:01:17;5.90;;;4.60;;
3085;SDS011;52812;48.960;9.108;2022-08-05T00:03:48;5.47;;;4.93;;
3085;SDS011;52812;48.960;9.108;2022-08-05T00:06:15;6.03;;;5.10;;
3085;SDS011;52812;48.960;9.108;2022-08-05T00:08:41;4.97;;;4.47;;
3085;SDS011;52812;48.960;9.108;2022-08-05T00:11:08;5.60;;;4.90;;
3085;SDS011;52812;48.960;9.108;2022-08-05T00:13:36;5.80;;;5.30;;
3085;SDS011;52812;48.960;9.108;2022-08-05T00:16:03;5.90;;;5.30;;
3085;SDS011;52812;48.960;9.108;2022-08-05T00:18:29;6.90;;;5.40;;
3085;SDS011;52812;48.960;9.108;2022-08-05T00:20:55;5.57;;;4.97;;
3085;SDS011;52812;48.960;9.108;2022-08-05T00:23:22;5.23;;;4.83;;
3085;SDS011;52812;48.960;9.108;2022-08-05T00:25:48;5.20;;;4.70;;
3085;SDS011;52812;48.960;9.108;2022-08-05T00:28:14;5.80;;;5.20;;
3085;SDS011;52812;48.960;9.108;2022-08-05T00:30:40;5.53;;;4.97;;
3085;SDS011;52812;48.960;9.108;2022-08-05T00:33:06;5.50;;;5.00;;
3085;SDS011;52812;48.960;9.108;2022-08-05T00:35:32;6.33;;;5.23;;
3085;SDS011;52812;48.960;9.108;2022-08-05T00:37:57;6.07;;;5.27;;
3085;SDS011;52812;48.960;9.108;2022-08-05T00:40:23;9.67;;;5.20;;
3085;SDS011;52812;48.960;9.108;2022-08-05T00:42:50;8.30;;;5.37;;
3085;SDS011;52812;48.960;9.108;2022-08-05T00:45:16;6.30;;;5.47;;
3085;SDS011;52812;48.960;9.108;2022-08-05T00:47:42;5.97;;;5.37;;
3085;SDS011;52812;48.960;9.108;2022-08-05T00:50:08;7.97;;;5.67;;
3085;SDS011;52812;48.960;9.108;2022-08-05T00:52:34;6.50;;;5.53;;
3085;SDS011;52812;48.960;9.108;2022-08-05T00:54:59;9.67;;;5.07;;
3085;SDS011;52812;48.960;9.108;2022-08-05T00:57:25;5.70;;;5.10;;
3085;SDS011;52812;48.960;9.108;2022-08-05T00:59:51;5.87;;;5.17;;
3085;SDS011;52812;48.960;9.108;2022-08-05T01:02:16;5.57;;;5.07;;
3085;SDS011;52812;48.960;9.108;2022-08-05T01:04:42;5.53;;;4.83;;
3085;SDS011;52812;48.960;9.108;2022-08-05T01:07:08;7.73;;;5.10;;
3085;SDS011;52812;48.960;9.108;2022-08-05T01:09:33;5.57;;;4.60;;
3085;SDS011;52812;48.960;9.108;2022-08-05T01:12:03;7.00;;;5.40;;
3085;SDS011;52812;48.960;9.108;2022-08-05T01:17:22;8.43;;;5.30;;
3085;SDS011;52812;48.960;9.108;2022-08-05T01:19:52;8.37;;;5.27;;
3085;SDS011;52812;48.960;9.108;2022-08-05T01:25:31;6.00;;;5.40;;
3085;SDS011;52812;48.960;9.108;2022-08-05T01:28:56;5.90;;;4.97;;
3085;SDS011;52812;48.960;9.108;2022-08-05T01:31:26;5.20;;;4.70;;
3085;SDS011;52812;48.960;9.108;2022-08-05T01:34:09;5.23;;;4.73;;
3085;SDS011;52812;48.960;9.108;2022-08-05T01:37:43;6.77;;;4.47;;
3085;SDS011;52812;48.960;9.108;2022-08-05T01:39:46;6.10;;;4.90;;
3085;SDS011;52812;48.960;9.108;2022-08-05T01:42:16;8.07;;;4.77;;
3085;SDS011;52812;48.960;9.108;2022-08-05T01:44:44;5.40;;;4.90;;
3085;SDS011;52812;48.960;9.108;2022-08-05T01:47:12;6.10;;;5.50;;
3085;SDS011;52812;48.960;9.108;2022-08-05T01:49:40;5.87;;;5.30;;
3085;SDS011;52812;48.960;9.108;2022-08-05T01:52:07;7.30;;;4.70;;
3085;SDS011;52812;48.960;9.108;2022-08-05T01:54:39;8.00;;;4.37;;
3085;SDS011;52812;48.960;9.108;2022-08-05T01:57:09;6.10;;;4.70;;
3085;SDS011;52812;48.960;9.108;2022-08-05T01:59:36;4.60;;;4.20;;
3085;SDS011;52812;48.960;9.108;2022-08-05T02:02:04;6.77;;;4.20;;
3085;SDS011;52812;48.960;9.108;2022-08-05T02:04:32;6.87;;;4.83;;
3085;SDS011;52812;48.960;9.108;2022-08-05T02:07:00;7.80;;;4.90;;
3085;SDS011;52812;48.960;9.108;2022-08-05T02:09:26;7.00;;;4.20;;
3085;SDS011;52812;48.960;9.108;2022-08-05T02:12:03;8.07;;;5.00;;
3085;SDS011;52812;48.960;9.108;2022-08-05T02:14:33;6.97;;;4.90;;
3085;SDS011;52812;48.960;9.108;2022-08-05T02:17:07;9.73;;;4.50;;
3085;SDS011;52812;48.960;9.108;2022-08-05T02:19:37;8.87;;;5.20;;
3085;SDS011;52812;48.960;9.108;2022-08-05T02:24:55;8.40;;;5.13;;
3085;SDS011;52812;48.960;9.108;2022-08-05T02:27:27;5.97;;;4.70;;
3085;SDS011;52812;48.960;9.108;2022-08-05T02:29:57;6.77;;;4.70;;
3085;SDS011;52812;48.960;9.108;2022-08-05T02:32:25;7.53;;;4.90;;
3085;SDS011;52812;48.960;9.108;2022-08-05T02:34:52;6.93;;;4.63;;
3085;SDS011;52812;48.960;9.108;2022-08-05T02:37:18;11.43;;;5.03;;
3085;SDS011;52812;48.960;9.108;2022-08-05T02:39:44;6.77;;;5.47;;
3085;SDS011;52812;48.960;9.108;2022-08-05T02:42:11;7.63;;;5.67;;
3085;SDS011;52812;48.960;9.108;2022-08-05T02:44:38;7.90;;;5.57;;
3085;SDS011;52812;48.960;9.108;2022-08-05T02:47:05;6.10;;;4.67;;
3085;SDS011;52812;48.960;9.108;2022-08-05T02:49:34;6.00;;;4.77;;
3085;SDS011;52812;48.960;9.108;2022-08-05T02:52:01;8.70;;;4.73;;
3085;SDS011;52812;48.960;9.108;2022-08-05T02:54:28;8.60;;;4.77;;
3085;SDS011;52812;48.960;9.108;2022-08-05T02:56:56;6.57;;;5.00;;
3085;SDS011;52812;48.960;9.108;2022-08-05T02:59:23;8.43;;;4.90;;
3085;SDS011;52812;48.960;9.108;2022-08-05T03:01:50;7.00;;;5.10;;
3085;SDS011;52812;48.960;9.108;2022-08-05T03:04:21;9.40;;;4.80;;
3085;SDS011;52812;48.960;9.108;2022-08-05T03:06:47;6.37;;;5.20;;
3085;SDS011;52812;48.960;9.108;2022-08-05T03:09:13;6.20;;;4.63;;
3085;SDS011;52812;48.960;9.108;2022-08-05T03:11:42;6.53;;;4.80;;
3085;SDS011;52812;48.960;9.108;2022-08-05T03:14:08;7.30;;;4.43;;
3085;SDS011;52812;48.960;9.108;2022-08-05T03:16:34;8.40;;;4.53;;
3085;SDS011;52812;48.960;9.108;2022-08-05T03:19:00;5.43;;;4.93;;
3085;SDS011;52812;48.960;9.108;2022-08-05T03:21:26;9.20;;;4.50;;
3085;SDS011;52812;48.960;9.108;2022-08-05T03:23:51;7.00;;;4.67;;
3085;SDS011;52812;48.960;9.108;2022-08-05T03:26:17;5.50;;;4.70;;
3085;SDS011;52812;48.960;9.108;2022-08-05T03:28:43;6.43;;;5.23;;
3085;SDS011;52812;48.960;9.108;2022-08-05T03:31:09;10.00;;;5.00;;
3085;SDS011;52812;48.960;9.108;2022-08-05T03:33:35;6.87;;;4.83;;
3085;SDS011;52812;48.960;9.108;2022-08-05T03:36:01;6.40;;;5.23;;
3085;SDS011;52812;48.960;9.108;2022-08-05T03:38:27;8.53;;;5.40;;
3085;SDS011;52812;48.960;9.108;2022-08-05T03:40:53;5.67;;;4.80;;
3085;SDS011;52812;48.960;9.108;2022-08-05T03:43:19;6.00;;;5.00;;
3085;SDS011;52812;48.960;9.108;2022-08-05T03:45:46;7.03;;;5.10;;
3085;SDS011;52812;48.960;9.108;2022-08-05T03:48:11;11.47;;;5.33;;
3085;SDS011;52812;48.960;9.108;2022-08-05T03:53:16;8.30;;;5.80;;
3085;SDS011;52812;48.960;9.108;2022-08-05T03:55:49;7.53;;;5.27;;
3085;SDS011;52812;48.960;9.108;2022-08-05T03:58:18;8.13;;;5.90;;
3085;SDS011;52812;48.960;9.108;2022-08-05T04:00:48;8.20;;;5.63;;
3085;SDS011;52812;48.960;9.108;2022-08-05T04:03:16;11.90;;;5.40;;
3085;SDS011;52812;48.960;9.108;2022-08-05T04:05:44;7.00;;;5.10;;
3085;SDS011;52812;48.960;9.108;2022-08-05T04:08:10;7.10;;;4.90;;
3085;SDS011;52812;48.960;9.108;2022-08-05T04:10:37;6.80;;;5.07;;
3085;SDS011;52812;48.960;9.108;2022-08-05T04:13:03;13.43;;;5.70;;
3085;SDS011;52812;48.960;9.108;2022-08-05T04:15:30;7.30;;;5.60;;
3085;SDS011;52812;48.960;9.108;2022-08-05T04:17:57;8.03;;;6.00;;
3085;SDS011;52812;48.960;9.108;2022-08-05T04:20:27;7.37;;;5.50;;
3085;SDS011;52812;48.960;9.108;2022-08-05T04:22:53;5.93;;;5.07;;
3085;SDS011;52812;48.960;9.108;2022-08-05T04:25:19;13.93;;;5.80;;
3085;SDS011;52812;48.960;9.108;2022-08-05T04:27:44;14.30;;;6.43;;
3085;SDS011;52812;48.960;9.108;2022-08-05T04:30:10;6.80;;;5.30;;
3085;SDS011;52812;48.960;9.108;2022-08-05T04:32:36;6.37;;;5.63;;
3085;SDS011;52812;48.960;9.108;2022-08-05T04:35:01;8.13;;;5.60;;
3085;SDS011;52812;48.960;9.108;2022-08-05T04:37:27;9.13;;;5.77;;
3085;SDS011;52812;48.960;9.108;2022-08-05T04:39:53;5.47;;;4.87;;
3085;SDS011;52812;48.960;9.108;2022-08-05T04:42:19;8.00;;;5.57;;
3085;SDS011;52812;48.960;9.108;2022-08-05T04:44:45;10.40;;;5.60;;
3085;SDS011;52812;48.960;9.108;2022-08-05T04:47:10;9.67;;;6.30;;
3085;SDS011;52812;48.960;9.108;2022-08-05T04:49:37;9.23;;;5.20;;
3085;SDS011;52812;48.960;9.108;2022-08-05T04:52:03;7.73;;;5.80;;
3085;SDS011;52812;48.960;9.108;2022-08-05T04:54:29;7.90;;;5.40;;
3085;SDS011;52812;48.960;9.108;2022-08-05T04:56:55;8.57;;;5.90;;
3085;SDS011;52812;48.960;9.108;2022-08-05T04:59:20;6.90;;;5.67;;
3085;SDS011;52812;48.960;9.108;2022-08-05T05:01:50;6.83;;;5.10;;
3085;SDS011;52812;48.960;9.108;2022-08-05T05:04:16;7.13;;;5.90;;
3085;SDS011;52812;48.960;9.108;2022-08-05T05:06:42;10.20;;;6.10;;
3085;SDS011;52812;48.960;9.108;2022-08-05T05:09:09;6.53;;;5.60;;
3085;SDS011;52812;48.960;9.108;2022-08-05T05:11:35;14.00;;;6.47;;
3085;SDS011;52812;48.960;9.108;2022-08-05T05:14:01;7.10;;;6.40;;
3085;SDS011;52812;48.960;9.108;2022-08-05T05:16:27;9.90;;;6.50;;
3085;SDS011;52812;48.960;9.108;2022-08-05T05:18:53;10.57;;;7.30;;
3085;SDS011;52812;48.960;9.108;2022-08-05T05:21:19;9.70;;;7.20;;
3085;SDS011;52812;48.960;9.108;2022-08-05T05:23:44;9.07;;;7.40;;
3085;SDS011;52812;48.960;9.108;2022-08-05T05:26:10;10.30;;;6.10;;
3085;SDS011;52812;48.960;9.108;2022-08-05T05:28:35;10.23;;;6.30;;
3085;SDS011;52812;48.960;9.108;2022-08-05T05:31:01;7.00;;;6.30;;
3085;SDS011;52812;48.960;9.108;2022-08-05T05:33:26;6.20;;;5.60;;
3085;SDS011;52812;48.960;9.108;2022-08-05T05:35:52;7.10;;;5.63;;
3085;SDS011;52812;48.960;9.108;2022-08-05T05:38:18;5.00;;;4.57;;
3085;SDS011;52812;48.960;9.108;2022-08-05T05:40:43;5.40;;;4.43;;
3085;SDS011;52812;48.960;9.108;2022-08-05T05:43:09;5.10;;;4.43;;
3085;SDS011;52812;48.960;9.108;2022-08-05T05:45:35;5.17;;;4.00;;
3085;SDS011;52812;48.960;9.108;2022-08-05T05:48:00;5.93;;;4.40;;
3085;SDS011;52812;48.960;9.108;2022-08-05T05:50:26;3.97;;;3.67;;
3085;SDS011;52812;48.960;9.108;2022-08-05T05:52:52;5.33;;;3.97;;
3085;SDS011;52812;48.960;9.108;2022-08-05T05:55:18;4.43;;;4.00;;
3085;SDS011;52812;48.960;9.108;2022-08-05T05:57:44;6.20;;;4.27;;
3085;SDS011;52812;48.960;9.108;2022-08-05T06:00:12;4.63;;;4.20;;
3085;SDS011;52812;48.960;9.108;2022-08-05T06:02:42;5.00;;;4.60;;
3085;SDS011;52812;48.960;9.108;2022-08-05T06:05:10;5.73;;;4.70;;
3085;SDS011;52812;48.960;9.108;2022-08-05T06:07:37;5.17;;;4.47;;
3085;SDS011;52812;48.960;9.108;2022-08-05T06:10:03;5.10;;;4.40;;
3085;SDS011;52812;48.960;9.108;2022-08-05T06:12:30;4.77;;;4.27;;
3085;SDS011;52812;48.960;9.108;2022-08-05T06:14:56;5.70;;;4.40;;
3085;SDS011;52812;48.960;9.108;2022-08-05T06:17:21;4.70;;;4.20;;
3085;SDS011;52812;48.960;9.108;2022-08-05T06:19:48;4.67;;;4.00;;
3085;SDS011;52812;48.960;9.108;2022-08-05T06:22:20;6.27;;;4.07;;
3085;SDS011;52812;48.960;9.108;2022-08-05T06:24:50;4.40;;;4.00;;
3085;SDS011;52812;48.960;9.108;2022-08-05T06:27:16;4.17;;;3.87;;
3085;SDS011;52812;48.960;9.108;2022-08-05T06:29:42;5.00;;;3.47;;
3085;SDS011;52812;48.960;9.108;2022-08-05T06:32:08;4.43;;;3.80;;
3085;SDS011;52812;48.960;9.108;2022-08-05T06:34:34;6.20;;;3.53;;
3085;SDS011;52812;48.960;9.108;2022-08-05T06:37:00;6.43;;;4.10;;
3085;SDS011;52812;48.960;9.108;2022-08-05T06:39:27;7.97;;;4.10;;
3085;SDS011;52812;48.960;9.108;2022-08-05T06:41:52;4.93;;;4.03;;
3085;SDS011;52812;48.960;9.108;2022-08-05T06:44:18;3.90;;;3.60;;
3085;SDS011;52812;48.960;9.108;2022-08-05T06:46:43;4.63;;;3.93;;
3085;SDS011;52812;48.960;9.108;2022-08-05T06:49:09;5.77;;;3.90;;
3085;SDS011;52812;48.960;9.108;2022-08-05T06:51:35;6.13;;;3.40;;
3085;SDS011;52812;48.960;9.108;2022-08-05T06:54:01;7.97;;;3.80;;
3085;SDS011;52812;48.960;9.108;2022-08-05T06:56:28;3.63;;;3.33;;
3085;SDS011;52812;48.960;9.108;2022-08-05T06:58:55;4.70;;;3.80;;
3085;SDS011;52812;48.960;9.108;2022-08-05T07:01:20;5.20;;;3.50;;
3085;SDS011;52812;48.960;9.108;2022-08-05T07:03:46;7.10;;;4.50;;
3085;SDS011;52812;48.960;9.108;2022-08-05T07:06:12;5.33;;;3.90;;
3085;SDS011;52812;48.960;9.108;2022-08-05T07:08:37;3.73;;;3.43;;
3085;SDS011;52812;48.960;9.108;2022-08-05T07:11:03;4.00;;;3.53;;
3085;SDS011;52812;48.960;9.108;2022-08-05T07:13:29;4.40;;;3.47;;
3085;SDS011;52812;48.960;9.108;2022-08-05T07:16:16;6.83;;;3.90;;
3085;SDS011;52812;48.960;9.108;2022-08-05T07:19:00;3.43;;;2.90;;
3085;SDS011;52812;48.960;9.108;2022-08-05T07:21:26;3.57;;;3.13;;
3085;SDS011;52812;48.960;9.108;2022-08-05T07:23:51;3.30;;;3.00;;
3085;SDS011;52812;48.960;9.108;2022-08-05T07:26:17;3.77;;;3.37;;
3085;SDS011;52812;48.960;9.108;2022-08-05T07:28:42;4.10;;;3.10;;
3085;SDS011;52812;48.960;9.108;2022-08-05T07:31:08;4.03;;;3.20;;
3085;SDS011;52812;48.960;9.108;2022-08-05T07:33:33;4.60;;;2.97;;
3085;SDS011;52812;48.960;9.108;2022-08-05T07:35:59;4.07;;;3.10;;
3085;SDS011;52812;48.960;9.108;2022-08-05T07:38:25;3.80;;;2.73;;
3085;SDS011;52812;48.960;9.108;2022-08-05T07:40:51;3.50;;;3.10;;
3085;SDS011;52812;48.960;9.108;2022-08-05T07:43:17;3.17;;;2.87;;
3085;SDS011;52812;48.960;9.108;2022-08-05T07:45:42;3.53;;;3.00;;
3085;SDS011;52812;48.960;9.108;2022-08-05T07:48:08;3.20;;;3.00;;
3085;SDS011;52812;48.960;9.108;2022-08-05T07:50:37;5.50;;;3.87;;
3085;SDS011;52812;48.960;9.108;2022-08-05T07:53:03;3.47;;;3.17;;
3085;SDS011;52812;48.960;9.108;2022-08-05T07:55:28;3.90;;;3.50;;
3085;SDS011;52812;48.960;9.108;2022-08-05T07:57:57;4.00;;;3.70;;
3085;SDS011;52812;48.960;9.108;2022-08-05T08:00:23;4.00;;;3.60;;
3085;SDS011;52812;48.960;9.108;2022-08-05T08:02:49;5.37;;;4.17;;
3085;SDS011;52812;48.960;9.108;2022-08-05T08:05:15;4.57;;;4.07;;
3085;SDS011;52812;48.960;9.108;2022-08-05T08:07:41;5.50;;;3.70;;
3085;SDS011;52812;48.960;9.108;2022-08-05T08:10:06;3.97;;;3.67;;
3085;SDS011;52812;48.960;9.108;2022-08-05T08:12:32;3.93;;;3.53;;
3085;SDS011;52812;48.960;9.108;2022-08-05T08:14:57;4.90;;;3.20;;
3085;SDS011;52812;48.960;9.108;2022-08-05T08:17:23;3.50;;;3.20;;
3085;SDS011;52812;48.960;9.108;2022-08-05T08:19:49;6.03;;;3.47;;
3085;SDS011;52812;48.960;9.108;2022-08-05T08:22:14;3.67;;;3.30;;
3085;SDS011;52812;48.960;9.108;2022-08-05T08:24:40;4.17;;;3.07;;
3085;SDS011;52812;48.960;9.108;2022-08-05T08:27:05;3.40;;;3.20;;
3085;SDS011;52812;48.960;9.108;2022-08-05T08:29:31;4.37;;;3.77;;
3085;SDS011;52812;48.960;9.108;2022-08-05T08:31:57;3.73;;;3.40;;
3085;SDS011;52812;48.960;9.108;2022-08-05T08:34:23;3.53;;;3.23;;
3085;SDS011;52812;48.960;9.108;2022-08-05T08:36:50;4.47;;;3.17;;
3085;SDS011;52812;48.960;9.108;2022-08-05T08:39:16;3.63;;;3.33;;
3085;SDS011;52812;48.960;9.108;2022-08-05T08:41:51;3.87;;;3.57;;
3085;SDS011;52812;48.960;9.108;2022-08-05T08:46:48;3.37;;;3.07;;
3085;SDS011;52812;48.960;9.108;2022-08-05T08:49:15;4.60;;;3.03;;
3085;SDS011;52812;48.960;9.108;2022-08-05T08:51:45;5.00;;;3.17;;
3085;SDS011;52812;48.960;9.108;2022-08-05T08:54:12;4.23;;;3.37;;
3085;SDS011;52812;48.960;9.108;2022-08-05T08:56:38;3.90;;;3.17;;
3085;SDS011;52812;48.960;9.108;2022-08-05T08:59:04;3.77;;;3.47;;
3085;SDS011;52812;48.960;9.108;2022-08-05T09:01:30;5.30;;;3.30;;
3085;SDS011;52812;48.960;9.108;2022-08-05T09:03:56;3.50;;;3.20;;
3085;SDS011;52812;48.960;9.108;2022-08-05T09:06:24;3.80;;;3.37;;
3085;SDS011;52812;48.960;9.108;2022-08-05T09:08:52;5.47;;;3.77;;
3085;SDS011;52812;48.960;9.108;2022-08-05T09:11:18;3.57;;;3.27;;
3085;SDS011;52812;48.960;9.108;2022-08-05T09:13:44;3.90;;;3.50;;
3085;SDS011;52812;48.960;9.108;2022-08-05T09:16:11;3.90;;;3.47;;
3085;SDS011;52812;48.960;9.108;2022-08-05T09:18:37;4.00;;;3.37;;
3085;SDS011;52812;48.960;9.108;2022-08-05T09:21:03;3.70;;;3.40;;
3085;SDS011;52812;48.960;9.108;2022-08-05T09:23:29;3.70;;;3.40;;
3085;SDS011;52812;48.960;9.108;2022-08-05T09:26:05;3.47;;;3.17;;
3085;SDS011;52812;48.960;9.108;2022-08-05T09:28:33;3.80;;;3.40;;
3085;SDS011;52812;48.960;9.108;2022-08-05T09:31:01;4.13;;;3.73;;
3085;SDS011;52812;48.960;9.108;2022-08-05T09:33:31;4.27;;;3.87;;
3085;SDS011;52812;48.960;9.108;2022-08-05T09:36:18;27.60;;;3.83;;
3085;SDS011;52812;48.960;9.108;2022-08-05T09:38:57;5.07;;;3.53;;
3085;SDS011;52812;48.960;9.108;2022-08-05T09:41:28;4.00;;;3.60;;
3085;SDS011;52812;48.960;9.108;2022-08-05T09:43:53;4.33;;;3.17;;
3085;SDS011;52812;48.960;9.108;2022-08-05T09:46:26;3.93;;;3.63;;
3085;SDS011;52812;48.960;9.108;2022-08-05T09:48:57;4.03;;;3.63;;
3085;SDS011;52812;48.960;9.108;2022-08-05T09:51:32;3.70;;;3.33;;
3085;SDS011;52812;48.960;9.108;2022-08-05T09:53:59;3.60;;;3.30;;
3085;SDS011;52812;48.960;9.108;2022-08-05T09:56:30;5.03;;;3.67;;
3085;SDS011;52812;48.960;9.108;2022-08-05T09:59:03;6.03;;;3.37;;
3085;SDS011;52812;48.960;9.108;2022-08-05T10:01:33;4.20;;;3.07;;
3085;SDS011;52812;48.960;9.108;2022-08-05T10:06:31;3.13;;;2.83;;
3085;SDS011;52812;48.960;9.108;2022-08-05T10:09:08;2.80;;;2.60;;
3085;SDS011;52812;48.960;9.108;2022-08-05T10:11:36;4.27;;;3.23;;
3085;SDS011;52812;48.960;9.108;2022-08-05T10:14:19;3.50;;;3.07;;
3085;SDS011;52812;48.960;9.108;2022-08-05T10:16:49;3.30;;;3.00;;
3085;SDS011;52812;48.960;9.108;2022-08-05T10:19:16;3.70;;;3.40;;
3085;SDS011;52812;48.960;9.108;2022-08-05T10:21:42;4.23;;;3.23;;
3085;SDS011;52812;48.960;9.108;2022-08-05T10:24:10;3.20;;;2.90;;
3085;SDS011;52812;48.960;9.108;2022-08-05T10:26:40;5.17;;;3.40;;
3085;SDS011;52812;48.960;9.108;2022-08-05T10:29:07;3.63;;;3.03;;
3085;SDS011;52812;48.960;9.108;2022-08-05T10:31:33;4.00;;;3.07;;
3085;SDS011;52812;48.960;9.108;2022-08-05T10:34:00;3.30;;;2.97;;
3085;SDS011;52812;48.960;9.108;2022-08-05T10:36:26;4.90;;;3.30;;
3085;SDS011;52812;48.960;9.108;2022-08-05T10:39:04;3.70;;;2.90;;
3085;SDS011;52812;48.960;9.108;2022-08-05T10:41:36;3.17;;;2.87;;
3085;SDS011;52812;48.960;9.108;2022-08-05T10:44:11;5.00;;;3.10;;
3085;SDS011;52812;48.960;9.108;2022-08-05T10:46:41;5.10;;;2.90;;
3085;SDS011;52812;48.960;9.108;2022-08-05T10:49:15;3.13;;;2.73;;
3085;SDS011;52812;48.960;9.108;2022-08-05T10:51:42;3.10;;;2.80;;
3085;SDS011;52812;48.960;9.108;2022-08-05T10:54:12;5.30;;;2.83;;
3085;SDS011;52812;48.960;9.108;2022-08-05T10:59:10;3.40;;;2.90;;
3085;SDS011;52812;48.960;9.108;2022-08-05T11:01:40;3.00;;;2.80;;
3085;SDS011;52812;48.960;9.108;2022-08-05T11:04:09;3.03;;;2.60;;
3085;SDS011;52812;48.960;9.108;2022-08-05T11:09:45;3.07;;;2.87;;
3085;SDS011;52812;48.960;9.108;2022-08-05T11:15:20;3.43;;;3.13;;
3085;SDS011;52812;48.960;9.108;2022-08-05T11:17:51;3.27;;;2.70;;
3085;SDS011;52812;48.960;9.108;2022-08-05T11:26:08;2.80;;;2.60;;
3085;SDS011;52812;48.960;9.108;2022-08-05T11:33:26;3.00;;;2.80;;
3085;SDS011;52812;48.960;9.108;2022-08-05T11:35:56;3.20;;;2.90;;
3085;SDS011;52812;48.960;9.108;2022-08-05T11:41:13;2.97;;;2.60;;
3085;SDS011;52812;48.960;9.108;2022-08-05T11:44:01;4.00;;;3.00;;
3085;SDS011;52812;48.960;9.108;2022-08-05T11:46:34;3.40;;;2.90;;
3085;SDS011;52812;48.960;9.108;2022-08-05T11:49:17;2.90;;;2.70;;
3085;SDS011;52812;48.960;9.108;2022-08-05T11:51:45;3.50;;;2.70;;
3085;SDS011;52812;48.960;9.108;2022-08-05T11:54:13;2.90;;;2.60;;
3085;SDS011;52812;48.960;9.108;2022-08-05T11:56:52;3.60;;;2.97;;
3085;SDS011;52812;48.960;9.108;2022-08-05T11:59:23;4.43;;;2.87;;
3085;SDS011;52812;48.960;9.108;2022-08-05T12:04:25;3.77;;;2.80;;
3085;SDS011;52812;48.960;9.108;2022-08-05T12:06:52;3.00;;;2.80;;
3085;SDS011;52812;48.960;9.108;2022-08-05T12:09:25;3.17;;;2.70;;
3085;SDS011;52812;48.960;9.108;2022-08-05T12:11:54;4.00;;;2.83;;
3085;SDS011;52812;48.960;9.108;2022-08-05T12:14:20;3.10;;;2.90;;
3085;SDS011;52812;48.960;9.108;2022-08-05T12:16:49;5.53;;;3.00;;
3085;SDS011;52812;48.960;9.108;2022-08-05T12:19:15;3.03;;;2.73;;
3085;SDS011;52812;48.960;9.108;2022-08-05T12:21:45;3.17;;;2.87;;
3085;SDS011;52812;48.960;9.108;2022-08-05T12:24:14;3.70;;;2.63;;
3085;SDS011;52812;48.960;9.108;2022-08-05T12:26:47;2.90;;;2.70;;
3085;SDS011;52812;48.960;9.108;2022-08-05T12:29:17;3.20;;;2.90;;
3085;SDS011;52812;48.960;9.108;2022-08-05T12:31:47;5.20;;;3.10;;
3085;SDS011;52812;48.960;9.108;2022-08-05T12:34:15;3.23;;;2.93;;
3085;SDS011;52812;48.960;9.108;2022-08-05T12:36:42;3.93;;;3.10;;
3085;SDS011;52812;48.960;9.108;2022-08-05T12:39:10;5.37;;;2.50;;
3085;SDS011;52812;48.960;9.108;2022-08-05T12:41:37;3.43;;;2.70;;
3085;SDS011;52812;48.960;9.108;2022-08-05T12:46:31;2.80;;;2.60;;
3085;SDS011;52812;48.960;9.108;2022-08-05T12:51:29;3.13;;;2.80;;
3085;SDS011;52812;48.960;9.108;2022-08-05T12:53:58;3.23;;;2.60;;
3085;SDS011;52812;48.960;9.108;2022-08-05T12:56:25;5.63;;;2.97;;
3085;SDS011;52812;48.960;9.108;2022-08-05T12:59:11;3.17;;;2.87;;
3085;SDS011;52812;48.960;9.108;2022-08-05T13:04:32;3.03;;;2.70;;
3085;SDS011;52812;48.960;9.108;2022-08-05T13:07:02;4.73;;;3.20;;
3085;SDS011;52812;48.960;9.108;2022-08-05T13:09:36;5.37;;;3.00;;
3085;SDS011;52812;48.960;9.108;2022-08-05T13:12:03;3.50;;;3.03;;
3085;SDS011;52812;48.960;9.108;2022-08-05T13:14:37;3.10;;;2.80;;
3085;SDS011;52812;48.960;9.108;2022-08-05T13:19:39;2.90;;;2.70;;
3085;SDS011;52812;48.960;9.108;2022-08-05T13:22:05;3.13;;;2.73;;
3085;SDS011;52812;48.960;9.108;2022-08-05T13:24:31;2.87;;;2.57;;
3085;SDS011;52812;48.960;9.108;2022-08-05T13:26:56;3.00;;;2.80;;
3085;SDS011;52812;48.960;9.108;2022-08-05T13:29:22;3.00;;;2.73;;
3085;SDS011;52812;48.960;9.108;2022-08-05T13:31:48;2.73;;;2.50;;
3085;SDS011;52812;48.960;9.108;2022-08-05T13:34:13;2.60;;;2.40;;
3085;SDS011;52812;48.960;9.108;2022-08-05T13:36:42;3.47;;;2.73;;
3085;SDS011;52812;48.960;9.108;2022-08-05T13:39:08;2.97;;;2.73;;
3085;SDS011;52812;48.960;9.108;2022-08-05T13:41:34;3.13;;;2.83;;
3085;SDS011;52812;48.960;9.108;2022-08-05T13:44:01;7.30;;;3.10;;
3085;SDS011;52812;48.960;9.108;2022-08-05T13:46:27;3.43;;;3.07;;
3085;SDS011;52812;48.960;9.108;2022-08-05T13:48:53;3.10;;;2.90;;
3085;SDS011;52812;48.960;9.108;2022-08-05T13:51:29;3.13;;;2.90;;
3085;SDS011;52812;48.960;9.108;2022-08-05T13:53:57;3.40;;;2.97;;
3085;SDS011;52812;48.960;9.108;2022-08-05T13:56:23;3.50;;;3.20;;
3085;SDS011;52812;48.960;9.108;2022-08-05T13:58:49;3.13;;;2.83;;
3085;SDS011;52812;48.960;9.108;2022-08-05T14:01:15;3.73;;;2.90;;
3085;SDS011;52812;48.960;9.108;2022-08-05T14:03:40;3.40;;;3.10;;
3085;SDS011;52812;48.960;9.108;2022-08-05T14:06:06;3.70;;;3.13;;
3085;SDS011;52812;48.960;9.108;2022-08-05T14:08:32;3.30;;;3.00;;
3085;SDS011;52812;48.960;9.108;2022-08-05T14:10:57;3.63;;;3.03;;
3085;SDS011;52812;48.960;9.108;2022-08-05T14:13:23;3.80;;;2.90;;
3085;SDS011;52812;48.960;9.108;2022-08-05T14:15:49;4.23;;;3.47;;
3085;SDS011;52812;48.960;9.108;2022-08-05T14:18:15;3.60;;;3.30;;
3085;SDS011;52812;48.960;9.108;2022-08-05T14:20:41;7.53;;;3.87;;
3085;SDS011;52812;48.960;9.108;2022-08-05T14:23:06;5.17;;;3.53;;
3085;SDS011;52812;48.960;9.108;2022-08-05T14:25:32;4.00;;;3.60;;
3085;SDS011;52812;48.960;9.108;2022-08-05T14:27:58;5.70;;;3.93;;
3085;SDS011;52812;48.960;9.108;2022-08-05T14:30:23;4.03;;;3.63;;
3085;SDS011;52812;48.960;9.108;2022-08-05T14:32:49;6.10;;;3.73;;
3085;SDS011;52812;48.960;9.108;2022-08-05T14:35:15;4.30;;;3.90;;
3085;SDS011;52812;48.960;9.108;2022-08-05T14:37:41;4.10;;;3.70;;
3085;SDS011;52812;48.960;9.108;2022-08-05T14:40:06;4.33;;;3.93;;
3085;SDS011;52812;48.960;9.108;2022-08-05T14:42:32;6.20;;;3.77;;
3085;SDS011;52812;48.960;9.108;2022-08-05T14:44:58;4.73;;;3.90;;
3085;SDS011;52812;48.960;9.108;2022-08-05T14:47:24;5.87;;;3.90;;
3085;SDS011;52812;48.960;9.108;2022-08-05T14:49:49;5.30;;;4.03;;
3085;SDS011;52812;48.960;9.108;2022-08-05T14:52:15;3.80;;;3.50;;
3085;SDS011;52812;48.960;9.108;2022-08-05T14:54:40;4.90;;;4.03;;
3085;SDS011;52812;48.960;9.108;2022-08-05T14:57:06;4.77;;;3.97;;
3085;SDS011;52812;48.960;9.108;2022-08-05T14:59:32;4.50;;;3.93;;
3085;SDS011;52812;48.960;9.108;2022-08-05T15:01:58;3.77;;;3.47;;
3085;SDS011;52812;48.960;9.108;2022-08-05T15:04:25;6.30;;;4.07;;
3085;SDS011;52812;48.960;9.108;2022-08-05T15:06:50;9.43;;;5.37;;
3085;SDS011;52812;48.960;9.108;2022-08-05T15:09:17;4.37;;;3.97;;
3085;SDS011;52812;48.960;9.108;2022-08-05T15:11:43;4.30;;;3.90;;
3085;SDS011;52812;48.960;9.108;2022-08-05T15:14:09;4.63;;;3.63;;
3085;SDS011;52812;48.960;9.108;2022-08-05T15:16:35;4.50;;;4.10;;
3085;SDS011;52812;48.960;9.108;2022-08-05T15:19:00;5.83;;;4.30;;
3085;SDS011;52812;48.960;9.108;2022-08-05T15:21:26;8.00;;;4.40;;
3085;SDS011;52812;48.960;9.108;2022-08-05T15:23:52;5.00;;;3.80;;
3085;SDS011;52812;48.960;9.108;2022-08-05T15:26:17;5.00;;;4.20;;
3085;SDS011;52812;48.960;9.108;2022-08-05T15:28:44;4.23;;;3.83;;
3085;SDS011;52812;48.960;9.108;2022-08-05T15:31:10;4.20;;;3.80;;
3085;SDS011;52812;48.960;9.108;2022-08-05T15:33:35;4.47;;;4.07;;
3085;SDS011;52812;48.960;9.108;2022-08-05T15:36:02;4.30;;;3.90;;
3085;SDS011;52812;48.960;9.108;2022-08-05T15:38:29;4.13;;;3.73;;
3085;SDS011;52812;48.960;9.108;2022-08-05T15:40:55;6.40;;;3.93;;
3085;SDS011;52812;48.960;9.108;2022-08-05T15:43:20;4.37;;;3.70;;
3085;SDS011;52812;48.960;9.108;2022-08-05T15:45:46;4.60;;;4.20;;
3085;SDS011;52812;48.960;9.108;2022-08-05T15:48:12;3.90;;;3.60;;
3085;SDS011;52812;48.960;9.108;2022-08-05T15:50:38;3.93;;;3.60;;
3085;SDS011;52812;48.960;9.108;2022-08-05T15:53:04;4.23;;;3.60;;
3085;SDS011;52812;48.960;9.108;2022-08-05T15:55:29;4.20;;;3.83;;